KMKT

Mankato Regional Airport

Mankato, Minnesota, USA
KMKT 171124Z 1712/1812 VRB03KT P6SM SKC FM180000 13006KT P6SM SKC
Issued Valid From Valid To
Dec-17 @ 11:24 UTC
(an hour ago)
Dec-17 @ 12:00 UTC
(39 minutes ago)
Dec-18 @ 12:00 UTC
(in 23 hours)
Dec-17 @ 12:00 to Dec-18 @ 00:00
KMKT 171124Z 1712/1812 VRB03KT P6SM SKC
Wind Visibility Clouds
Variable at 3 knots Greater than 6 miles
  • Clear skies
From Dec-18 @ 00:00 to Dec-18 @ 12:00
FM180000 13006KT P6SM SKC
Wind Visibility Clouds
130° at 6 knots Greater than 6 miles
  • Clear skies
KMKT 171124Z 1712/1812 VRB03KT P6SM SKC FM180000 13006KT P6SM SKC
Issued Dec-17 @ 11:24 UTC
(an hour ago)
Valid From Dec-17 @ 12:00 UTC
(39 minutes ago)
Valid To Dec-18 @ 12:00 UTC
(in 23 hours)
Dec-17 @ 12:00 - Dec-18 @ 00:00
Wind Visibility
Variable at 3 knots Greater than 6 miles
Clouds
  • Clear skies
From Dec-18 @ 00:00 - Dec-18 @ 12:00
Wind Visibility
130° at 6 knots Greater than 6 miles
Clouds
  • Clear skies